sensor_id;sensor_type;location;lat;lon;timestamp;pressure;altitude;pressure_sealevel;temperature;humidity
80976;BME280;70437;49.466;11.002;2024-01-30T00:01:35;99611.44;;;2.70;97.95
80976;BME280;70437;49.466;11.002;2024-01-30T00:04:05;99604.91;;;2.64;99.06
80976;BME280;70437;49.466;11.002;2024-01-30T00:06:34;99602.25;;;2.55;100.00
80976;BME280;70437;49.466;11.002;2024-01-30T00:09:05;99604.59;;;2.48;100.00
80976;BME280;70437;49.466;11.002;2024-01-30T00:11:34;99603.44;;;2.41;100.00
80976;BME280;70437;49.466;11.002;2024-01-30T00:14:04;99597.31;;;2.40;100.00
80976;BME280;70437;49.466;11.002;2024-01-30T00:16:42;99597.16;;;2.32;100.00
80976;BME280;70437;49.466;11.002;2024-01-30T00:19:13;99605.78;;;2.24;100.00
80976;BME280;70437;49.466;11.002;2024-01-30T00:21:42;99602.41;;;2.22;100.00
80976;BME280;70437;49.466;11.002;2024-01-30T00:24:12;99600.47;;;2.15;100.00
80976;BME280;70437;49.466;11.002;2024-01-30T00:26:41;99602.56;;;2.21;100.00
80976;BME280;70437;49.466;11.002;2024-01-30T00:29:11;99599.09;;;2.20;100.00
80976;BME280;70437;49.466;11.002;2024-01-30T00:31:48;99592.53;;;2.15;100.00
80976;BME280;70437;49.466;11.002;2024-01-30T00:34:18;99598.34;;;2.09;100.00
80976;BME280;70437;49.466;11.002;2024-01-30T00:36:47;99596.41;;;2.11;100.00
80976;BME280;70437;49.466;11.002;2024-01-30T00:39:17;99593.06;;;2.09;100.00
80976;BME280;70437;49.466;11.002;2024-01-30T00:41:47;99590.00;;;2.13;100.00
80976;BME280;70437;49.466;11.002;2024-01-30T00:44:22;99582.78;;;2.06;100.00
80976;BME280;70437;49.466;11.002;2024-01-30T00:46:55;99588.09;;;2.15;100.00
80976;BME280;70437;49.466;11.002;2024-01-30T00:49:24;99584.47;;;2.16;100.00
80976;BME280;70437;49.466;11.002;2024-01-30T00:51:54;99591.31;;;2.19;100.00
80976;BME280;70437;49.466;11.002;2024-01-30T00:54:25;99582.78;;;2.15;100.00
80976;BME280;70437;49.466;11.002;2024-01-30T00:56:59;99591.16;;;2.20;100.00
80976;BME280;70437;49.466;11.002;2024-01-30T00:59:32;99588.78;;;2.17;100.00
80976;BME280;70437;49.466;11.002;2024-01-30T01:02:04;99580.56;;;2.11;100.00
80976;BME280;70437;49.466;11.002;2024-01-30T01:04:33;99582.38;;;2.10;100.00
80976;BME280;70437;49.466;11.002;2024-01-30T01:07:04;99585.00;;;2.10;100.00
80976;BME280;70437;49.466;11.002;2024-01-30T01:09:35;99585.84;;;2.11;100.00
80976;BME280;70437;49.466;11.002;2024-01-30T01:12:07;99588.59;;;2.09;100.00
80976;BME280;70437;49.466;11.002;2024-01-30T01:14:40;99590.69;;;2.06;100.00
80976;BME280;70437;49.466;11.002;2024-01-30T01:17:14;99588.75;;;2.08;100.00
80976;BME280;70437;49.466;11.002;2024-01-30T01:19:47;99591.38;;;2.08;100.00
80976;BME280;70437;49.466;11.002;2024-01-30T01:22:19;99585.00;;;2.10;100.00
80976;BME280;70437;49.466;11.002;2024-01-30T01:24:53;99591.34;;;1.98;100.00
80976;BME280;70437;49.466;11.002;2024-01-30T01:27:24;99591.22;;;1.99;100.00
80976;BME280;70437;49.466;11.002;2024-01-30T01:29:54;99591.22;;;1.99;100.00
80976;BME280;70437;49.466;11.002;2024-01-30T01:32:53;99590.09;;;1.92;100.00
80976;BME280;70437;49.466;11.002;2024-01-30T01:35:30;99587.84;;;1.88;100.00
80976;BME280;70437;49.466;11.002;2024-01-30T01:38:04;99584.63;;;1.84;100.00
80976;BME280;70437;49.466;11.002;2024-01-30T01:40:36;99574.31;;;1.81;100.00
80976;BME280;70437;49.466;11.002;2024-01-30T01:43:08;99565.81;;;1.77;100.00
80976;BME280;70437;49.466;11.002;2024-01-30T01:45:40;99571.25;;;1.86;100.00
80976;BME280;70437;49.466;11.002;2024-01-30T01:48:11;99554.94;;;1.71;100.00
80976;BME280;70437;49.466;11.002;2024-01-30T01:50:43;99553.38;;;1.68;100.00
80976;BME280;70437;49.466;11.002;2024-01-30T01:53:13;99555.38;;;1.76;100.00
80976;BME280;70437;49.466;11.002;2024-01-30T01:55:47;99561.75;;;1.73;100.00
80976;BME280;70437;49.466;11.002;2024-01-30T01:58:21;99558.06;;;1.86;100.00
80976;BME280;70437;49.466;11.002;2024-01-30T02:00:56;99555.66;;;1.83;100.00
80976;BME280;70437;49.466;11.002;2024-01-30T02:03:34;99557.25;;;1.95;99.64
80976;BME280;70437;49.466;11.002;2024-01-30T02:06:06;99569.16;;;2.10;96.65
80976;BME280;70437;49.466;11.002;2024-01-30T02:08:37;99565.63;;;2.10;97.28
80976;BME280;70437;49.466;11.002;2024-01-30T02:11:07;99563.69;;;2.02;97.32
80976;BME280;70437;49.466;11.002;2024-01-30T02:13:37;99554.88;;;1.92;99.64
80976;BME280;70437;49.466;11.002;2024-01-30T02:16:07;99560.00;;;1.84;100.00
80976;BME280;70437;49.466;11.002;2024-01-30T02:18:39;99572.31;;;1.73;100.00
80976;BME280;70437;49.466;11.002;2024-01-30T02:21:19;99566.63;;;1.78;100.00
80976;BME280;70437;49.466;11.002;2024-01-30T02:23:52;99559.47;;;1.90;100.00
80976;BME280;70437;49.466;11.002;2024-01-30T02:26:26;99550.31;;;1.94;100.00
80976;BME280;70437;49.466;11.002;2024-01-30T02:28:56;99550.69;;;1.89;100.00
80976;BME280;70437;49.466;11.002;2024-01-30T02:31:25;99547.34;;;1.87;100.00
80976;BME280;70437;49.466;11.002;2024-01-30T02:33:54;99541.94;;;1.89;100.00
80976;BME280;70437;49.466;11.002;2024-01-30T02:36:25;99551.28;;;1.93;100.00
80976;BME280;70437;49.466;11.002;2024-01-30T02:38:55;99560.00;;;1.84;100.00
80976;BME280;70437;49.466;11.002;2024-01-30T02:41:24;99567.94;;;1.84;100.00
80976;BME280;70437;49.466;11.002;2024-01-30T02:43:54;99562.47;;;1.75;100.00
80976;BME280;70437;49.466;11.002;2024-01-30T02:46:23;99557.03;;;1.77;100.00
80976;BME280;70437;49.466;11.002;2024-01-30T02:48:54;99553.41;;;1.78;100.00
80976;BME280;70437;49.466;11.002;2024-01-30T02:51:27;99561.41;;;1.88;100.00
80976;BME280;70437;49.466;11.002;2024-01-30T02:53:57;99557.91;;;1.87;100.00
80976;BME280;70437;49.466;11.002;2024-01-30T02:56:26;99553.00;;;1.73;100.00
80976;BME280;70437;49.466;11.002;2024-01-30T02:58:55;99552.88;;;1.74;100.00
80976;BME280;70437;49.466;11.002;2024-01-30T03:01:25;99564.94;;;1.67;100.00
80976;BME280;70437;49.466;11.002;2024-01-30T03:03:56;99560.22;;;1.71;100.00
80976;BME280;70437;49.466;11.002;2024-01-30T03:06:28;99558.03;;;1.76;100.00
80976;BME280;70437;49.466;11.002;2024-01-30T03:08:58;99548.13;;;1.78;100.00
80976;BME280;70437;49.466;11.002;2024-01-30T03:11:30;99561.25;;;1.80;100.00
80976;BME280;70437;49.466;11.002;2024-01-30T03:13:59;99552.41;;;1.69;100.00
80976;BME280;70437;49.466;11.002;2024-01-30T03:16:29;99549.78;;;1.69;100.00
80976;BME280;70437;49.466;11.002;2024-01-30T03:18:59;99544.34;;;1.61;100.00
80976;BME280;70437;49.466;11.002;2024-01-30T03:21:31;99541.38;;;1.55;100.00
80976;BME280;70437;49.466;11.002;2024-01-30T03:24:02;99540.69;;;1.52;100.00
80976;BME280;70437;49.466;11.002;2024-01-30T03:26:32;99538.72;;;1.55;100.00
80976;BME280;70437;49.466;11.002;2024-01-30T03:29:01;99543.03;;;1.56;100.00
80976;BME280;70437;49.466;11.002;2024-01-30T03:31:32;99546.84;;;1.63;100.00
80976;BME280;70437;49.466;11.002;2024-01-30T03:34:02;99540.28;;;1.57;100.00
80976;BME280;70437;49.466;11.002;2024-01-30T03:36:34;99549.16;;;1.56;100.00
80976;BME280;70437;49.466;11.002;2024-01-30T03:39:04;99543.47;;;1.61;100.00
80976;BME280;70437;49.466;11.002;2024-01-30T03:41:35;99550.94;;;1.76;100.00
80976;BME280;70437;49.466;11.002;2024-01-30T03:44:06;99552.47;;;1.79;100.00
80976;BME280;70437;49.466;11.002;2024-01-30T03:46:37;99553.56;;;1.76;100.00
80976;BME280;70437;49.466;11.002;2024-01-30T03:49:07;99553.16;;;1.81;100.00
80976;BME280;70437;49.466;11.002;2024-01-30T03:51:38;99556.66;;;1.82;100.00
80976;BME280;70437;49.466;11.002;2024-01-30T03:54:07;99553.03;;;1.83;100.00
80976;BME280;70437;49.466;11.002;2024-01-30T03:56:37;99547.75;;;1.83;100.00
80976;BME280;70437;49.466;11.002;2024-01-30T03:59:07;99549.38;;;1.74;100.00
80976;BME280;70437;49.466;11.002;2024-01-30T04:01:37;99542.19;;;1.86;100.00
80976;BME280;70437;49.466;11.002;2024-01-30T04:04:10;99548.19;;;1.88;100.00
80976;BME280;70437;49.466;11.002;2024-01-30T04:06:42;99546.09;;;1.91;100.00
80976;BME280;70437;49.466;11.002;2024-01-30T04:09:11;99552.09;;;1.84;100.00
80976;BME280;70437;49.466;11.002;2024-01-30T04:11:44;99545.41;;;1.89;100.00
80976;BME280;70437;49.466;11.002;2024-01-30T04:14:18;99541.66;;;1.92;100.00
80976;BME280;70437;49.466;11.002;2024-01-30T04:16:47;99550.97;;;1.86;100.00
80976;BME280;70437;49.466;11.002;2024-01-30T04:19:25;99542.06;;;1.87;100.00
80976;BME280;70437;49.466;11.002;2024-01-30T04:21:58;99542.06;;;1.87;100.00
80976;BME280;70437;49.466;11.002;2024-01-30T04:24:27;99556.13;;;1.88;100.00
80976;BME280;70437;49.466;11.002;2024-01-30T04:26:58;99547.81;;;1.92;100.00
80976;BME280;70437;49.466;11.002;2024-01-30T04:29:29;99550.13;;;1.86;100.00
80976;BME280;70437;49.466;11.002;2024-01-30T04:32:01;99548.59;;;1.83;100.00
80976;BME280;70437;49.466;11.002;2024-01-30T04:34:31;99549.31;;;1.95;100.00
80976;BME280;70437;49.466;11.002;2024-01-30T04:37:04;99549.63;;;2.01;100.00
80976;BME280;70437;49.466;11.002;2024-01-30T04:39:35;99549.34;;;2.05;100.00
80976;BME280;70437;49.466;11.002;2024-01-30T04:42:06;99554.53;;;2.06;100.00
80976;BME280;70437;49.466;11.002;2024-01-30T04:44:37;99552.81;;;2.05;100.00
80976;BME280;70437;49.466;11.002;2024-01-30T04:47:07;99557.69;;;2.00;100.00
80976;BME280;70437;49.466;11.002;2024-01-30T04:49:38;99554.22;;;1.99;100.00
80976;BME280;70437;49.466;11.002;2024-01-30T04:52:09;99569.09;;;2.00;100.00
80976;BME280;70437;49.466;11.002;2024-01-30T04:54:40;99566.03;;;2.05;100.00
80976;BME280;70437;49.466;11.002;2024-01-30T04:57:10;99564.53;;;2.02;100.00
80976;BME280;70437;49.466;11.002;2024-01-30T04:59:40;99568.53;;;1.97;100.00
80976;BME280;70437;49.466;11.002;2024-01-30T05:02:10;99567.53;;;1.88;100.00
80976;BME280;70437;49.466;11.002;2024-01-30T05:04:45;99572.69;;;1.90;100.00
80976;BME280;70437;49.466;11.002;2024-01-30T05:07:16;99568.38;;;1.89;100.00
80976;BME280;70437;49.466;11.002;2024-01-30T05:09:46;99576.47;;;1.97;100.00
80976;BME280;70437;49.466;11.002;2024-01-30T05:12:15;99568.97;;;2.02;100.00
80976;BME280;70437;49.466;11.002;2024-01-30T05:14:44;99568.16;;;2.01;100.00
80976;BME280;70437;49.466;11.002;2024-01-30T05:17:14;99573.84;;;1.97;100.00
80976;BME280;70437;49.466;11.002;2024-01-30T05:19:43;99571.59;;;1.92;100.00
80976;BME280;70437;49.466;11.002;2024-01-30T05:22:14;99580.06;;;1.96;100.00
80976;BME280;70437;49.466;11.002;2024-01-30T05:24:48;99576.28;;;1.89;100.00
80976;BME280;70437;49.466;11.002;2024-01-30T05:27:17;99583.78;;;1.84;100.00
80976;BME280;70437;49.466;11.002;2024-01-30T05:29:46;99585.31;;;1.86;100.00
80976;BME280;70437;49.466;11.002;2024-01-30T05:32:15;99579.38;;;1.94;100.00
80976;BME280;70437;49.466;11.002;2024-01-30T05:34:45;99577.53;;;1.85;100.00
80976;BME280;70437;49.466;11.002;2024-01-30T05:37:15;99580.22;;;1.94;100.00
80976;BME280;70437;49.466;11.002;2024-01-30T05:39:46;99585.09;;;1.99;100.00
80976;BME280;70437;49.466;11.002;2024-01-30T05:42:18;99584.41;;;1.97;100.00
80976;BME280;70437;49.466;11.002;2024-01-30T05:44:47;99583.41;;;1.88;100.00
80976;BME280;70437;49.466;11.002;2024-01-30T05:47:17;99588.97;;;1.95;100.00
80976;BME280;70437;49.466;11.002;2024-01-30T05:49:47;99586.59;;;1.92;100.00
80976;BME280;70437;49.466;11.002;2024-01-30T05:52:16;99587.72;;;1.99;100.00
80976;BME280;70437;49.466;11.002;2024-01-30T05:54:47;99588.81;;;1.96;100.00
80976;BME280;70437;49.466;11.002;2024-01-30T05:57:19;99579.22;;;1.95;100.00
80976;BME280;70437;49.466;11.002;2024-01-30T05:59:48;99590.22;;;2.00;100.00
80976;BME280;70437;49.466;11.002;2024-01-30T06:02:21;99590.13;;;2.02;100.00
80976;BME280;70437;49.466;11.002;2024-01-30T06:04:51;99591.53;;;2.06;100.00
80976;BME280;70437;49.466;11.002;2024-01-30T06:07:22;99595.28;;;2.13;100.00
80976;BME280;70437;49.466;11.002;2024-01-30T06:09:52;99586.09;;;2.08;100.00
80976;BME280;70437;49.466;11.002;2024-01-30T06:12:32;99588.75;;;2.08;100.00
80976;BME280;70437;49.466;11.002;2024-01-30T06:15:08;99585.41;;;2.06;100.00
80976;BME280;70437;49.466;11.002;2024-01-30T06:17:47;99590.56;;;2.07;100.00
80976;BME280;70437;49.466;11.002;2024-01-30T06:20:21;99599.91;;;2.11;100.00
80976;BME280;70437;49.466;11.002;2024-01-30T06:22:52;99599.91;;;2.11;100.00
80976;BME280;70437;49.466;11.002;2024-01-30T06:25:25;99600.72;;;2.12;100.00
80976;BME280;70437;49.466;11.002;2024-01-30T06:27:58;99596.44;;;2.20;100.00
80976;BME280;70437;49.466;11.002;2024-01-30T06:30:35;99583.06;;;2.22;100.00
80976;BME280;70437;49.466;11.002;2024-01-30T06:33:04;99589.03;;;2.14;100.00
80976;BME280;70437;49.466;11.002;2024-01-30T06:35:38;99593.19;;;2.07;100.00
80976;BME280;70437;49.466;11.002;2024-01-30T06:38:11;99596.00;;;2.06;100.00
80976;BME280;70437;49.466;11.002;2024-01-30T06:40:40;99590.56;;;2.07;100.00
80976;BME280;70437;49.466;11.002;2024-01-30T06:43:13;99596.94;;;2.05;100.00
80976;BME280;70437;49.466;11.002;2024-01-30T06:45:45;99598.06;;;2.02;100.00
80976;BME280;70437;49.466;11.002;2024-01-30T06:48:23;99592.88;;;2.00;100.00
80976;BME280;70437;49.466;11.002;2024-01-30T06:51:03;99595.69;;;2.09;100.00
80976;BME280;70437;49.466;11.002;2024-01-30T06:53:32;99591.66;;;2.05;100.00
80976;BME280;70437;49.466;11.002;2024-01-30T06:56:03;99594.44;;;2.03;100.00
80976;BME280;70437;49.466;11.002;2024-01-30T06:58:34;99591.09;;;2.01;100.00
80976;BME280;70437;49.466;11.002;2024-01-30T07:01:03;99600.41;;;2.05;100.00
80976;BME280;70437;49.466;11.002;2024-01-30T07:03:36;99602.66;;;2.10;100.00
80976;BME280;70437;49.466;11.002;2024-01-30T07:06:07;99596.81;;;2.06;100.00
80976;BME280;70437;49.466;11.002;2024-01-30T07:08:37;99596.41;;;2.11;100.00
80976;BME280;70437;49.466;11.002;2024-01-30T07:11:09;99604.34;;;2.11;100.00
80976;BME280;70437;49.466;11.002;2024-01-30T07:13:42;99600.88;;;2.10;100.00
80976;BME280;70437;49.466;11.002;2024-01-30T07:16:11;99601.16;;;2.17;100.00
80976;BME280;70437;49.466;11.002;2024-01-30T07:18:40;99603.53;;;2.20;100.00
80976;BME280;70437;49.466;11.002;2024-01-30T07:21:10;99608.28;;;2.26;100.00
80976;BME280;70437;49.466;11.002;2024-01-30T07:23:42;99609.84;;;2.28;100.00
80976;BME280;70437;49.466;11.002;2024-01-30T07:26:21;99617.78;;;2.38;100.00
80976;BME280;70437;49.466;11.002;2024-01-30T07:28:54;99613.19;;;2.40;100.00
80976;BME280;70437;49.466;11.002;2024-01-30T07:31:27;99613.91;;;2.42;100.00
80976;BME280;70437;49.466;11.002;2024-01-30T07:34:01;99620.19;;;2.41;100.00
80976;BME280;70437;49.466;11.002;2024-01-30T07:36:31;99618.53;;;2.60;100.00
80976;BME280;70437;49.466;11.002;2024-01-30T07:39:02;99624.84;;;2.68;100.00
80976;BME280;70437;49.466;11.002;2024-01-30T07:41:34;99627.16;;;2.62;100.00
80976;BME280;70437;49.466;11.002;2024-01-30T07:44:04;99636.25;;;2.88;99.69
80976;BME280;70437;49.466;11.002;2024-01-30T07:46:34;99627.91;;;2.93;98.41
80976;BME280;70437;49.466;11.002;2024-01-30T07:49:04;99624.00;;;2.97;96.38
80976;BME280;70437;49.466;11.002;2024-01-30T07:51:34;99622.75;;;3.01;95.59
80976;BME280;70437;49.466;11.002;2024-01-30T07:54:13;99622.75;;;3.01;95.55
80976;BME280;70437;49.466;11.002;2024-01-30T07:56:44;99625.97;;;2.95;95.22
80976;BME280;70437;49.466;11.002;2024-01-30T07:59:16;99617.72;;;3.08;93.38
80976;BME280;70437;49.466;11.002;2024-01-30T08:02:02;99626.38;;;3.19;92.31
80976;BME280;70437;49.466;11.002;2024-01-30T08:04:33;99631.53;;;3.21;91.93
80976;BME280;70437;49.466;11.002;2024-01-30T08:07:04;99632.91;;;3.35;90.31
80976;BME280;70437;49.466;11.002;2024-01-30T08:09:36;99634.19;;;3.31;90.98
80976;BME280;70437;49.466;11.002;2024-01-30T08:12:08;99632.38;;;3.41;89.95
80976;BME280;70437;49.466;11.002;2024-01-30T08:14:49;99630.53;;;3.51;89.29
80976;BME280;70437;49.466;11.002;2024-01-30T08:17:18;99638.22;;;3.54;89.45
80976;BME280;70437;49.466;11.002;2024-01-30T08:19:50;99631.22;;;3.63;87.48
80976;BME280;70437;49.466;11.002;2024-01-30T08:22:19;99628.53;;;3.72;86.50
80976;BME280;70437;49.466;11.002;2024-01-30T08:24:49;99636.50;;;3.72;86.32
80976;BME280;70437;49.466;11.002;2024-01-30T08:27:19;99626.72;;;3.73;86.04
80976;BME280;70437;49.466;11.002;2024-01-30T08:29:49;99626.28;;;3.77;86.07
80976;BME280;70437;49.466;11.002;2024-01-30T08:32:20;99629.50;;;3.81;85.08
80976;BME280;70437;49.466;11.002;2024-01-30T08:34:49;99632.00;;;3.83;84.69
80976;BME280;70437;49.466;11.002;2024-01-30T08:37:20;99633.66;;;3.93;85.67
80976;BME280;70437;49.466;11.002;2024-01-30T08:39:51;99625.63;;;4.13;84.78
80976;BME280;70437;49.466;11.002;2024-01-30T08:42:22;99633.69;;;4.21;84.41
80976;BME280;70437;49.466;11.002;2024-01-30T08:44:55;99633.03;;;4.37;83.91
80976;BME280;70437;49.466;11.002;2024-01-30T08:47:25;99635.06;;;4.25;82.74
80976;BME280;70437;49.466;11.002;2024-01-30T08:49:55;99636.63;;;4.18;82.97
80976;BME280;70437;49.466;11.002;2024-01-30T08:52:25;99638.09;;;4.30;83.47
80976;BME280;70437;49.466;11.002;2024-01-30T08:54:57;99625.78;;;4.39;82.72
80976;BME280;70437;49.466;11.002;2024-01-30T08:57:29;99633.28;;;4.43;81.56
80976;BME280;70437;49.466;11.002;2024-01-30T09:00:02;99629.09;;;4.41;80.62
80976;BME280;70437;49.466;11.002;2024-01-30T09:02:35;99631.25;;;4.55;80.55
80976;BME280;70437;49.466;11.002;2024-01-30T09:05:07;99630.53;;;4.80;79.54
80976;BME280;70437;49.466;11.002;2024-01-30T09:07:38;99630.94;;;4.86;79.29
80976;BME280;70437;49.466;11.002;2024-01-30T09:10:10;99623.66;;;5.05;78.57
80976;BME280;70437;49.466;11.002;2024-01-30T09:12:42;99623.13;;;5.20;78.10
80976;BME280;70437;49.466;11.002;2024-01-30T09:15:14;99623.28;;;5.36;75.58
80976;BME280;70437;49.466;11.002;2024-01-30T09:17:42;99629.41;;;5.54;74.51
80976;BME280;70437;49.466;11.002;2024-01-30T09:20:13;99631.97;;;5.90;73.76
80976;BME280;70437;49.466;11.002;2024-01-30T09:22:42;99626.06;;;6.89;68.03
80976;BME280;70437;49.466;11.002;2024-01-30T09:25:12;99625.94;;;7.40;64.45
80976;BME280;70437;49.466;11.002;2024-01-30T09:27:42;99631.94;;;7.25;63.73
80976;BME280;70437;49.466;11.002;2024-01-30T09:30:14;99638.00;;;6.26;67.85
80976;BME280;70437;49.466;11.002;2024-01-30T09:32:47;99638.53;;;6.30;69.51
80976;BME280;70437;49.466;11.002;2024-01-30T09:35:16;99636.34;;;6.25;69.39
80976;BME280;70437;49.466;11.002;2024-01-30T09:37:47;99633.13;;;6.14;69.55
80976;BME280;70437;49.466;11.002;2024-01-30T09:40:18;99632.91;;;5.81;71.45
80976;BME280;70437;49.466;11.002;2024-01-30T09:42:50;99631.34;;;5.52;73.19
80976;BME280;70437;49.466;11.002;2024-01-30T09:45:24;99634.19;;;5.51;73.72
80976;BME280;70437;49.466;11.002;2024-01-30T09:47:55;99630.94;;;5.65;76.65
80976;BME280;70437;49.466;11.002;2024-01-30T09:50:30;99626.34;;;5.67;74.23
80976;BME280;70437;49.466;11.002;2024-01-30T09:53:03;99631.59;;;5.85;73.21
80976;BME280;70437;49.466;11.002;2024-01-30T09:55:34;99632.78;;;5.91;72.56
80976;BME280;70437;49.466;11.002;2024-01-30T09:58:05;99636.28;;;5.91;72.92
80976;BME280;70437;49.466;11.002;2024-01-30T10:00:37;99629.00;;;5.93;72.21
80976;BME280;70437;49.466;11.002;2024-01-30T10:03:07;99632.91;;;6.07;71.63
80976;BME280;70437;49.466;11.002;2024-01-30T10:05:39;99632.47;;;6.20;70.83
80976;BME280;70437;49.466;11.002;2024-01-30T10:08:09;99634.00;;;6.22;70.98
80976;BME280;70437;49.466;11.002;2024-01-30T10:10:40;99629.41;;;6.41;70.58
80976;BME280;70437;49.466;11.002;2024-01-30T10:13:10;99630.81;;;6.61;70.02
80976;BME280;70437;49.466;11.002;2024-01-30T10:15:42;99626.88;;;6.81;68.15
80976;BME280;70437;49.466;11.002;2024-01-30T10:18:12;99623.69;;;6.78;67.80
80976;BME280;70437;49.466;11.002;2024-01-30T10:20:42;99626.47;;;6.60;69.19
80976;BME280;70437;49.466;11.002;2024-01-30T10:23:14;99626.13;;;6.55;69.70
80976;BME280;70437;49.466;11.002;2024-01-30T10:25:44;99623.22;;;6.74;69.92
80976;BME280;70437;49.466;11.002;2024-01-30T10:28:14;99628.16;;;6.61;69.20
80976;BME280;70437;49.466;11.002;2024-01-30T10:30:46;99626.81;;;6.65;69.39
80976;BME280;70437;49.466;11.002;2024-01-30T10:33:16;99619.88;;;6.80;69.06
80976;BME280;70437;49.466;11.002;2024-01-30T10:35:47;99622.06;;;6.93;68.61
80976;BME280;70437;49.466;11.002;2024-01-30T10:38:20;99621.59;;;6.98;67.98
80976;BME280;70437;49.466;11.002;2024-01-30T10:40:52;99616.88;;;6.92;68.22
80976;BME280;70437;49.466;11.002;2024-01-30T10:43:30;99613.94;;;7.03;68.20
80976;BME280;70437;49.466;11.002;2024-01-30T10:46:09;99607.44;;;7.14;68.29
80976;BME280;70437;49.466;11.002;2024-01-30T10:48:43;99611.75;;;7.23;67.32
80976;BME280;70437;49.466;11.002;2024-01-30T10:51:13;99606.28;;;7.32;67.31
80976;BME280;70437;49.466;11.002;2024-01-30T10:53:46;99605.63;;;7.39;66.87
80976;BME280;70437;49.466;11.002;2024-01-30T10:56:18;99609.63;;;7.43;66.46
80976;BME280;70437;49.466;11.002;2024-01-30T10:58:50;99615.78;;;7.51;66.20
80976;BME280;70437;49.466;11.002;2024-01-30T11:01:22;99617.28;;;7.46;66.65
80976;BME280;70437;49.466;11.002;2024-01-30T11:03:53;99607.41;;;7.63;66.42
80976;BME280;70437;49.466;11.002;2024-01-30T11:06:25;99611.78;;;7.55;65.70
80976;BME280;70437;49.466;11.002;2024-01-30T11:09:01;99613.44;;;7.73;65.70
80976;BME280;70437;49.466;11.002;2024-01-30T11:11:31;99611.41;;;7.75;65.70
80976;BME280;70437;49.466;11.002;2024-01-30T11:14:09;99611.72;;;7.80;65.40
80976;BME280;70437;49.466;11.002;2024-01-30T11:16:42;99603.22;;;7.84;64.81
80976;BME280;70437;49.466;11.002;2024-01-30T11:19:14;99602.88;;;7.88;65.42
80976;BME280;70437;49.466;11.002;2024-01-30T11:21:43;99603.81;;;8.11;64.81
80976;BME280;70437;49.466;11.002;2024-01-30T11:24:14;99601.72;;;8.29;62.74
80976;BME280;70437;49.466;11.002;2024-01-30T11:26:43;99594.75;;;8.68;62.70
80976;BME280;70437;49.466;11.002;2024-01-30T11:29:13;99592.09;;;8.91;61.67
80976;BME280;70437;49.466;11.002;2024-01-30T11:31:54;99584.91;;;9.14;59.66
80976;BME280;70437;49.466;11.002;2024-01-30T11:34:24;99583.53;;;9.18;59.37
80976;BME280;70437;49.466;11.002;2024-01-30T11:36:56;99580.16;;;9.24;59.96
80976;BME280;70437;49.466;11.002;2024-01-30T11:39:29;99580.22;;;8.93;61.02
80976;BME280;70437;49.466;11.002;2024-01-30T11:41:59;99580.38;;;8.92;60.57
80976;BME280;70437;49.466;11.002;2024-01-30T11:44:30;99576.69;;;8.70;61.71
80976;BME280;70437;49.466;11.002;2024-01-30T11:47:03;99579.03;;;8.73;62.23
80976;BME280;70437;49.466;11.002;2024-01-30T11:49:35;99577.47;;;8.78;61.69
80976;BME280;70437;49.466;11.002;2024-01-30T11:52:05;99570.13;;;8.80;61.26
80976;BME280;70437;49.466;11.002;2024-01-30T11:54:39;99557.84;;;8.94;61.12
80976;BME280;70437;49.466;11.002;2024-01-30T11:57:10;99559.47;;;9.18;60.58
80976;BME280;70437;49.466;11.002;2024-01-30T11:59:41;99557.59;;;9.04;61.14
80976;BME280;70437;49.466;11.002;2024-01-30T12:02:16;99563.41;;;9.07;61.17
80976;BME280;70437;49.466;11.002;2024-01-30T12:04:46;99556.47;;;9.36;59.83
80976;BME280;70437;49.466;11.002;2024-01-30T12:07:16;99553.31;;;9.32;60.63
80976;BME280;70437;49.466;11.002;2024-01-30T12:09:53;99552.44;;;9.40;59.91
80976;BME280;70437;49.466;11.002;2024-01-30T12:12:24;99544.13;;;9.35;59.55
80976;BME280;70437;49.466;11.002;2024-01-30T12:14:55;99540.34;;;9.44;60.93
80976;BME280;70437;49.466;11.002;2024-01-30T12:17:29;99535.28;;;9.64;59.36
80976;BME280;70437;49.466;11.002;2024-01-30T12:20:04;99541.50;;;9.94;59.03
80976;BME280;70437;49.466;11.002;2024-01-30T12:22:36;99531.22;;;10.42;56.42
80976;BME280;70437;49.466;11.002;2024-01-30T12:25:08;99532.56;;;10.53;55.32
80976;BME280;70437;49.466;11.002;2024-01-30T12:27:39;99527.25;;;10.38;57.19
80976;BME280;70437;49.466;11.002;2024-01-30T12:30:12;99519.16;;;10.31;56.50
80976;BME280;70437;49.466;11.002;2024-01-30T12:32:45;99517.28;;;10.17;57.38
80976;BME280;70437;49.466;11.002;2024-01-30T12:35:18;99521.38;;;9.98;58.71
80976;BME280;70437;49.466;11.002;2024-01-30T12:37:48;99518.13;;;10.03;58.54
80976;BME280;70437;49.466;11.002;2024-01-30T12:40:18;99513.03;;;10.08;59.41
80976;BME280;70437;49.466;11.002;2024-01-30T12:42:48;99515.25;;;10.19;58.04
80976;BME280;70437;49.466;11.002;2024-01-30T12:45:19;99512.31;;;10.29;58.04
80976;BME280;70437;49.466;11.002;2024-01-30T12:47:52;99507.09;;;10.42;57.62
80976;BME280;70437;49.466;11.002;2024-01-30T12:50:23;99503.16;;;10.23;57.54
80976;BME280;70437;49.466;11.002;2024-01-30T12:52:55;99501.78;;;10.12;58.00
80976;BME280;70437;49.466;11.002;2024-01-30T12:55:28;99507.16;;;9.98;58.62
80976;BME280;70437;49.466;11.002;2024-01-30T12:57:58;99499.13;;;9.98;58.81
80976;BME280;70437;49.466;11.002;2024-01-30T13:00:31;99495.41;;;9.99;59.18
80976;BME280;70437;49.466;11.002;2024-01-30T13:03:04;99491.91;;;9.98;59.52
80976;BME280;70437;49.466;11.002;2024-01-30T13:05:34;99501.59;;;10.14;58.50
80976;BME280;70437;49.466;11.002;2024-01-30T13:08:05;99499.19;;;10.19;58.83
80976;BME280;70437;49.466;11.002;2024-01-30T13:10:34;99502.16;;;10.24;58.29
80976;BME280;70437;49.466;11.002;2024-01-30T13:13:04;99504.84;;;10.24;57.87
80976;BME280;70437;49.466;11.002;2024-01-30T13:15:46;99505.81;;;10.38;57.41
80976;BME280;70437;49.466;11.002;2024-01-30T13:18:18;99511.06;;;10.46;57.74